createdAt,value
2022-12-27T00:00:47.946Z,96.10
2022-12-27T00:03:14.428Z,95.51
2022-12-27T00:05:47.565Z,95.76
2022-12-27T00:08:14.654Z,95.53
2022-12-27T00:10:41.142Z,96.09
2022-12-27T00:13:07.528Z,96.11
2022-12-27T00:15:34.948Z,97.71
2022-12-27T00:18:01.411Z,97.74
2022-12-27T00:20:29.362Z,98.10
2022-12-27T00:22:55.767Z,98.59
2022-12-27T00:25:22.653Z,99.39
2022-12-27T00:27:49.042Z,98.67
2022-12-27T00:30:15.495Z,98.53
2022-12-27T00:32:41.962Z,98.20
2022-12-27T00:35:08.863Z,99.22
2022-12-27T00:37:35.611Z,99.36
2022-12-27T00:40:02.052Z,99.30
2022-12-27T00:42:28.446Z,100.00
2022-12-27T00:44:54.901Z,100.00
2022-12-27T00:47:21.330Z,100.00
2022-12-27T00:49:47.722Z,99.90
2022-12-27T00:52:14.194Z,99.76
2022-12-27T00:54:40.613Z,100.00
2022-12-27T00:57:07.046Z,99.26
2022-12-27T00:59:33.508Z,100.00
2022-12-27T01:01:59.996Z,98.75
2022-12-27T01:04:26.528Z,99.65
2022-12-27T01:06:53.007Z,99.50
2022-12-27T01:09:19.464Z,99.27
2022-12-27T01:11:45.867Z,98.71
2022-12-27T01:14:12.325Z,99.32
2022-12-27T01:16:40.467Z,99.35
2022-12-27T01:19:07.000Z,99.10
2022-12-27T01:21:33.539Z,99.41
2022-12-27T01:24:00.029Z,99.50
2022-12-27T01:26:26.447Z,99.03
2022-12-27T01:28:53.621Z,99.16
2022-12-27T01:31:27.542Z,98.45
2022-12-27T01:33:55.769Z,98.51
2022-12-27T01:36:24.091Z,98.59
2022-12-27T01:38:50.951Z,98.25
2022-12-27T01:42:08.932Z,98.72
2022-12-27T01:44:38.346Z,98.75
2022-12-27T01:47:11.736Z,98.35
2022-12-27T01:49:46.253Z,97.84
2022-12-27T01:52:13.561Z,97.93
2022-12-27T01:54:43.220Z,97.33
2022-12-27T01:57:10.092Z,98.38
2022-12-27T01:59:37.095Z,98.68
2022-12-27T02:02:03.874Z,98.05
2022-12-27T02:04:31.597Z,97.50
2022-12-27T02:06:59.297Z,97.57
2022-12-27T02:09:29.121Z,97.67
2022-12-27T02:11:57.227Z,97.56
2022-12-27T02:14:28.659Z,97.62
2022-12-27T02:16:56.579Z,97.09
2022-12-27T02:19:41.297Z,97.03
2022-12-27T02:22:26.513Z,96.62
2022-12-27T02:25:17.574Z,97.20
2022-12-27T02:27:43.964Z,97.43
2022-12-27T02:30:12.938Z,97.24
2022-12-27T02:32:52.238Z,97.30
2022-12-27T02:35:20.491Z,97.93
2022-12-27T02:37:58.639Z,97.89
2022-12-27T02:40:44.535Z,97.95
2022-12-27T02:43:30.045Z,97.99
2022-12-27T02:46:27.269Z,97.69
2022-12-27T02:49:15.514Z,97.98
2022-12-27T02:52:22.309Z,97.95
2022-12-27T02:54:53.746Z,97.67
2022-12-27T02:57:47.985Z,97.01
2022-12-27T03:00:39.142Z,97.01
2022-12-27T03:03:42.593Z,97.48
2022-12-27T03:06:42.094Z,97.80
2022-12-27T03:09:50.761Z,98.62
2022-12-27T03:13:15.640Z,97.66
2022-12-27T03:15:57.115Z,97.77
2022-12-27T03:18:48.413Z,97.93
2022-12-27T03:21:38.826Z,97.86
2022-12-27T03:24:24.333Z,97.14
2022-12-27T03:26:51.372Z,97.70
2022-12-27T03:29:38.640Z,97.61
2022-12-27T03:32:27.249Z,97.90
2022-12-27T03:34:58.828Z,97.58
2022-12-27T03:37:48.981Z,98.04
2022-12-27T03:40:35.110Z,98.09
2022-12-27T03:43:13.858Z,97.39
2022-12-27T03:46:10.048Z,96.64
2022-12-27T03:48:45.087Z,97.10
2022-12-27T03:51:12.539Z,96.87
2022-12-27T03:53:42.124Z,97.26
2022-12-27T03:56:09.348Z,97.45
2022-12-27T03:58:36.022Z,97.34
2022-12-27T04:01:02.591Z,96.58
2022-12-27T04:03:29.151Z,97.21
2022-12-27T04:05:55.621Z,97.64
2022-12-27T04:08:40.636Z,96.33
2022-12-27T04:11:25.308Z,97.12
2022-12-27T04:14:10.092Z,97.17
2022-12-27T04:16:54.858Z,96.87
2022-12-27T04:19:39.722Z,96.90
2022-12-27T04:22:24.449Z,96.98
2022-12-27T04:25:09.699Z,97.34
2022-12-27T04:27:54.488Z,97.27
2022-12-27T04:30:39.228Z,97.62
2022-12-27T04:33:24.354Z,98.14
2022-12-27T04:35:50.813Z,97.65
2022-12-27T04:38:17.199Z,97.75
2022-12-27T04:41:02.358Z,97.11
2022-12-27T04:43:47.476Z,96.82
2022-12-27T04:46:43.863Z,96.44
2022-12-27T04:49:38.106Z,96.89
2022-12-27T04:52:33.084Z,96.77
2022-12-27T04:55:01.641Z,97.27
2022-12-27T04:57:28.428Z,97.87
2022-12-27T05:00:13.590Z,98.29
2022-12-27T05:02:40.454Z,97.49
2022-12-27T05:05:07.660Z,97.00
2022-12-27T05:07:52.756Z,96.76
2022-12-27T05:10:37.827Z,98.01
2022-12-27T05:13:23.519Z,97.29
2022-12-27T05:15:49.996Z,96.32
2022-12-27T05:18:17.123Z,97.46
2022-12-27T05:20:43.587Z,97.35
2022-12-27T05:23:28.684Z,97.84
2022-12-27T05:25:55.163Z,96.94
2022-12-27T05:28:21.620Z,97.83
2022-12-27T05:30:48.056Z,97.56
2022-12-27T05:33:14.482Z,98.08
2022-12-27T05:35:41.050Z,97.68
2022-12-27T05:38:07.689Z,98.09
2022-12-27T05:40:37.124Z,97.54
2022-12-27T05:43:04.309Z,98.00
2022-12-27T05:45:30.832Z,98.53
2022-12-27T05:47:58.799Z,98.77
2022-12-27T05:50:25.196Z,98.50
2022-12-27T05:52:51.586Z,97.86
2022-12-27T05:55:18.061Z,98.18
2022-12-27T05:57:44.483Z,97.75
2022-12-27T06:00:11.543Z,98.04
2022-12-27T06:02:39.406Z,98.28
2022-12-27T06:05:06.214Z,97.62
2022-12-27T06:07:32.694Z,97.42
2022-12-27T06:09:59.113Z,97.42
2022-12-27T06:12:25.532Z,98.47
2022-12-27T06:14:51.995Z,97.33
2022-12-27T06:17:18.414Z,97.35
2022-12-27T06:19:44.850Z,97.16
2022-12-27T06:22:11.231Z,98.41
2022-12-27T06:24:37.618Z,97.83
2022-12-27T06:27:04.135Z,96.88
2022-12-27T06:29:30.611Z,97.13
2022-12-27T06:31:57.063Z,97.41
2022-12-27T06:34:23.506Z,97.57
2022-12-27T06:36:51.312Z,97.68
2022-12-27T06:39:18.591Z,97.91
2022-12-27T06:41:45.083Z,97.54
2022-12-27T06:44:11.586Z,98.01
2022-12-27T06:46:37.995Z,96.57
2022-12-27T06:49:04.653Z,98.42
2022-12-27T06:51:31.093Z,98.17
2022-12-27T06:53:57.530Z,97.08
2022-12-27T06:56:23.960Z,98.35
2022-12-27T06:58:50.929Z,97.45
2022-12-27T07:01:24.375Z,98.80
2022-12-27T07:03:55.308Z,99.45
2022-12-27T07:06:23.252Z,99.42
2022-12-27T07:08:50.819Z,98.40
2022-12-27T07:11:18.729Z,98.44
2022-12-27T07:13:48.226Z,97.91
2022-12-27T07:16:16.894Z,98.72
2022-12-27T07:18:44.063Z,98.42
2022-12-27T07:21:13.728Z,99.63
2022-12-27T07:23:40.378Z,98.95
2022-12-27T07:26:29.739Z,98.22
2022-12-27T07:28:58.181Z,98.25
2022-12-27T07:31:26.688Z,98.66
2022-12-27T07:33:53.233Z,99.57
2022-12-27T07:36:22.075Z,98.43
2022-12-27T07:38:48.597Z,99.73
2022-12-27T07:41:16.071Z,98.58
2022-12-27T07:43:44.243Z,98.16
2022-12-27T07:46:12.532Z,98.46
2022-12-27T07:48:39.861Z,99.58
2022-12-27T07:51:06.803Z,99.09
2022-12-27T07:53:33.992Z,99.05
2022-12-27T07:56:05.842Z,98.70
2022-12-27T07:58:36.588Z,99.60
2022-12-27T08:01:03.788Z,99.52
2022-12-27T08:03:31.369Z,100.00
2022-12-27T08:05:57.870Z,100.00
2022-12-27T08:08:27.327Z,100.00
2022-12-27T08:10:53.746Z,99.78
2022-12-27T08:13:20.158Z,100.00
2022-12-27T08:15:48.849Z,100.00
2022-12-27T08:18:15.238Z,99.48
2022-12-27T08:20:41.707Z,100.00
2022-12-27T08:23:08.138Z,100.00
2022-12-27T08:25:36.922Z,100.00
2022-12-27T08:28:08.496Z,100.00
2022-12-27T08:30:34.973Z,100.00
2022-12-27T08:33:02.245Z,100.00
2022-12-27T08:38:15.131Z,100.00
2022-12-27T08:40:43.044Z,100.00
2022-12-27T08:43:09.746Z,100.00
2022-12-27T08:45:37.060Z,100.00
2022-12-27T08:48:03.750Z,100.00
2022-12-27T08:50:30.773Z,100.00
2022-12-27T08:52:58.792Z,100.00
2022-12-27T08:55:29.081Z,100.00
2022-12-27T08:58:04.373Z,100.00
2022-12-27T09:00:31.437Z,100.00
2022-12-27T09:02:58.457Z,100.00
2022-12-27T09:05:26.455Z,100.00
2022-12-27T09:07:53.393Z,100.00
2022-12-27T09:10:21.525Z,100.00
2022-12-27T09:12:48.038Z,100.00
2022-12-27T09:15:14.557Z,100.00
2022-12-27T09:17:41.332Z,100.00
2022-12-27T09:20:08.588Z,100.00
2022-12-27T09:22:35.403Z,100.00
2022-12-27T09:25:02.002Z,100.00
2022-12-27T09:27:28.452Z,100.00
2022-12-27T09:29:54.905Z,100.00
2022-12-27T09:32:21.361Z,100.00
2022-12-27T09:34:47.852Z,100.00
2022-12-27T09:37:14.316Z,100.00
2022-12-27T09:39:40.757Z,100.00
2022-12-27T09:45:21.146Z,100.00
2022-12-27T09:47:53.545Z,100.00
2022-12-27T09:50:42.464Z,100.00
2022-12-27T09:53:17.377Z,100.00
2022-12-27T09:55:50.195Z,100.00
2022-12-27T09:58:38.246Z,100.00
2022-12-27T10:01:19.186Z,100.00
2022-12-27T10:03:45.966Z,100.00
2022-12-27T10:06:29.576Z,100.00
2022-12-27T10:09:36.991Z,100.00
2022-12-27T10:12:23.382Z,100.00
2022-12-27T10:15:03.332Z,100.00
2022-12-27T10:17:29.654Z,100.00
2022-12-27T10:20:04.634Z,100.00
2022-12-27T10:22:49.791Z,100.00
2022-12-27T10:25:20.239Z,100.00
2022-12-27T10:27:50.748Z,100.00
2022-12-27T10:30:22.521Z,100.00
2022-12-27T10:32:49.690Z,100.00
2022-12-27T10:35:19.115Z,100.00
2022-12-27T10:37:46.376Z,100.00
2022-12-27T10:40:38.985Z,100.00
2022-12-27T10:43:41.705Z,100.00
2022-12-27T10:46:11.802Z,100.00
2022-12-27T10:51:26.452Z,100.00
2022-12-27T10:54:21.153Z,100.00
2022-12-27T10:56:47.602Z,100.00
2022-12-27T10:59:16.817Z,100.00
2022-12-27T11:02:16.069Z,100.00
2022-12-27T11:04:59.536Z,100.00
2022-12-27T11:07:34.133Z,100.00
2022-12-27T11:10:15.255Z,100.00
2022-12-27T11:12:55.829Z,100.00
2022-12-27T11:15:22.192Z,100.00
2022-12-27T11:17:55.386Z,100.00
2022-12-27T11:20:38.773Z,100.00
2022-12-27T11:23:11.957Z,99.45
2022-12-27T11:25:59.847Z,100.00
2022-12-27T11:28:34.570Z,100.00
2022-12-27T11:31:03.794Z,99.74
2022-12-27T11:33:37.293Z,99.81
2022-12-27T11:36:04.317Z,99.32
2022-12-27T11:38:33.601Z,100.00
2022-12-27T11:41:03.279Z,99.60
2022-12-27T11:43:36.709Z,100.00
2022-12-27T11:46:06.362Z,100.00
2022-12-27T11:48:40.407Z,98.69
2022-12-27T11:51:25.648Z,98.90
2022-12-27T11:54:14.435Z,98.57
2022-12-27T11:56:45.479Z,99.79
2022-12-27T11:59:25.305Z,99.32
2022-12-27T12:02:22.455Z,99.22
2022-12-27T12:05:19.910Z,99.33
2022-12-27T12:07:58.710Z,98.58
2022-12-27T12:10:44.210Z,98.92
2022-12-27T12:13:28.858Z,98.53
2022-12-27T12:15:55.278Z,98.51
2022-12-27T12:18:45.094Z,97.79
2022-12-27T12:21:17.439Z,98.35
2022-12-27T12:24:02.298Z,99.02
2022-12-27T12:26:40.224Z,98.85
2022-12-27T12:29:27.994Z,98.20
2022-12-27T12:32:09.764Z,97.36
2022-12-27T12:35:08.573Z,97.20
2022-12-27T12:38:13.726Z,97.98
2022-12-27T12:41:04.324Z,96.48
2022-12-27T12:43:46.029Z,97.38
2022-12-27T12:46:47.594Z,97.55
2022-12-27T12:49:30.000Z,96.07
2022-12-27T12:52:24.609Z,97.09
2022-12-27T12:55:15.420Z,96.55
2022-12-27T12:57:52.213Z,95.48
2022-12-27T13:00:37.448Z,94.79
2022-12-27T13:03:22.600Z,96.30
2022-12-27T13:06:08.309Z,97.06
2022-12-27T13:08:40.686Z,95.06
2022-12-27T13:11:07.101Z,94.93
2022-12-27T13:13:46.660Z,95.28
2022-12-27T13:16:32.419Z,94.80
2022-12-27T13:19:11.717Z,95.10
2022-12-27T13:21:47.190Z,96.57
2022-12-27T13:25:24.561Z,94.21
2022-12-27T13:27:53.664Z,94.17
2022-12-27T13:30:48.910Z,94.71
2022-12-27T13:33:30.427Z,95.15
2022-12-27T13:36:10.248Z,93.64
2022-12-27T13:39:01.232Z,95.26
2022-12-27T13:41:50.179Z,94.57
2022-12-27T13:44:34.816Z,94.39
2022-12-27T13:47:34.885Z,94.74
2022-12-27T13:50:31.733Z,95.11
2022-12-27T13:53:19.626Z,93.93
2022-12-27T13:55:48.949Z,93.99
2022-12-27T13:58:35.560Z,93.84
2022-12-27T14:01:24.142Z,94.73
2022-12-27T14:03:56.533Z,93.66
2022-12-27T14:06:34.401Z,94.32
2022-12-27T14:09:15.985Z,93.78
2022-12-27T14:12:04.912Z,94.41
2022-12-27T14:14:33.231Z,93.81
2022-12-27T14:17:17.968Z,94.25
2022-12-27T14:20:11.784Z,94.30
2022-12-27T14:23:02.804Z,93.93
2022-12-27T14:25:41.484Z,93.22
2022-12-27T14:28:47.488Z,94.04
2022-12-27T14:31:29.019Z,94.28
2022-12-27T14:34:01.516Z,93.76
2022-12-27T14:36:37.104Z,94.96
2022-12-27T14:39:24.584Z,95.13
2022-12-27T14:42:21.581Z,95.02
2022-12-27T14:45:14.067Z,94.50
2022-12-27T14:47:59.281Z,95.12
2022-12-27T14:51:08.069Z,95.49
2022-12-27T14:53:58.950Z,95.42
2022-12-27T14:56:53.894Z,95.76
2022-12-27T14:59:35.597Z,96.42
2022-12-27T15:02:02.128Z,95.80
2022-12-27T15:04:52.746Z,95.94
2022-12-27T15:07:28.113Z,96.47
2022-12-27T15:10:13.279Z,96.72
2022-12-27T15:12:42.787Z,96.64
2022-12-27T15:15:23.869Z,97.18
2022-12-27T15:17:57.445Z,97.36
2022-12-27T15:21:01.238Z,97.56
2022-12-27T15:23:39.686Z,96.90
2022-12-27T15:26:21.313Z,97.67
2022-12-27T15:29:18.354Z,97.49
2022-12-27T15:32:06.825Z,97.74
2022-12-27T15:34:33.211Z,97.28
2022-12-27T15:36:59.776Z,97.35
2022-12-27T15:39:35.536Z,97.15
2022-12-27T15:42:20.073Z,97.35
2022-12-27T15:44:49.583Z,97.12
2022-12-27T15:47:19.034Z,97.34
2022-12-27T15:50:06.745Z,96.68
2022-12-27T15:52:57.340Z,97.14
2022-12-27T15:55:29.870Z,96.90
2022-12-27T15:58:15.959Z,97.22
2022-12-27T16:00:44.450Z,97.27
2022-12-27T16:03:29.724Z,97.13
2022-12-27T16:05:56.967Z,97.75
2022-12-27T16:08:29.221Z,98.07
2022-12-27T16:10:56.349Z,97.62
2022-12-27T16:13:37.662Z,97.63
2022-12-27T16:16:38.565Z,96.71
2022-12-27T16:19:17.185Z,96.67
2022-12-27T16:21:45.091Z,96.50
2022-12-27T16:24:15.775Z,96.99
2022-12-27T16:27:03.248Z,97.37
2022-12-27T16:29:33.001Z,96.92
2022-12-27T16:32:17.722Z,97.27
2022-12-27T16:34:45.424Z,97.51
2022-12-27T16:37:31.462Z,96.92
2022-12-27T16:40:14.653Z,97.94
2022-12-27T16:43:10.165Z,97.85
2022-12-27T16:45:39.596Z,98.27
2022-12-27T16:48:24.614Z,98.68
2022-12-27T16:50:56.353Z,98.63
2022-12-27T16:54:00.692Z,98.11
2022-12-27T16:56:28.962Z,98.73
2022-12-27T16:58:56.578Z,98.01
2022-12-27T17:01:26.257Z,98.34
2022-12-27T17:03:53.457Z,97.71
2022-12-27T17:06:37.220Z,97.34
2022-12-27T17:09:09.879Z,97.99
2022-12-27T17:11:51.302Z,98.49
2022-12-27T17:14:21.442Z,97.50
2022-12-27T17:16:50.318Z,97.97
2022-12-27T17:19:21.091Z,97.61
2022-12-27T17:21:48.125Z,97.41
2022-12-27T17:24:19.262Z,96.91
2022-12-27T17:27:04.751Z,97.17
2022-12-27T17:29:49.893Z,97.16
2022-12-27T17:32:22.561Z,97.19
2022-12-27T17:35:29.257Z,96.73
2022-12-27T17:38:16.906Z,96.49
2022-12-27T17:40:49.216Z,96.10
2022-12-27T17:44:09.637Z,96.06
2022-12-27T17:46:55.652Z,96.54
2022-12-27T17:49:31.117Z,96.42
2022-12-27T17:52:16.535Z,96.37
2022-12-27T17:55:01.441Z,96.33
2022-12-27T17:57:46.519Z,96.25
2022-12-27T18:00:26.256Z,96.58
2022-12-27T18:02:54.353Z,96.64
2022-12-27T18:05:35.853Z,96.71
2022-12-27T18:08:07.777Z,96.56
2022-12-27T18:10:36.522Z,96.11
2022-12-27T18:13:05.199Z,97.09
2022-12-27T18:15:34.563Z,97.77
2022-12-27T18:18:06.364Z,96.50
2022-12-27T18:20:37.770Z,95.96
2022-12-27T18:23:04.082Z,96.25
2022-12-27T18:25:38.225Z,96.17
2022-12-27T18:28:32.463Z,96.27
2022-12-27T18:30:59.711Z,96.74
2022-12-27T18:33:39.812Z,96.63
2022-12-27T18:36:08.171Z,96.34
2022-12-27T18:38:44.346Z,96.50
2022-12-27T18:41:17.232Z,96.29
2022-12-27T18:43:45.914Z,96.99
2022-12-27T18:46:17.940Z,97.02
2022-12-27T18:48:44.530Z,96.23
2022-12-27T18:51:10.996Z,96.54
2022-12-27T18:53:38.540Z,96.84
2022-12-27T18:56:15.833Z,96.75
2022-12-27T18:59:16.394Z,96.73
2022-12-27T19:01:44.336Z,96.31
2022-12-27T19:04:15.544Z,96.72
2022-12-27T19:06:44.796Z,97.09
2022-12-27T19:09:16.515Z,97.37
2022-12-27T19:11:53.551Z,97.20
2022-12-27T19:14:21.208Z,97.19
2022-12-27T19:16:56.155Z,96.73
2022-12-27T19:19:26.648Z,96.33
2022-12-27T19:21:53.306Z,97.46
2022-12-27T19:24:20.139Z,97.41
2022-12-27T19:26:46.603Z,98.32
2022-12-27T19:29:36.516Z,98.41
2022-12-27T19:32:09.406Z,98.82
2022-12-27T19:34:51.911Z,98.69
2022-12-27T19:37:19.069Z,99.58
2022-12-27T19:39:46.975Z,99.74
2022-12-27T19:42:21.866Z,99.70
2022-12-27T19:44:48.533Z,99.88
2022-12-27T19:47:15.476Z,99.82
2022-12-27T19:49:43.997Z,99.65
2022-12-27T19:52:15.875Z,99.42
2022-12-27T19:54:42.575Z,99.36
2022-12-27T19:57:11.577Z,98.67
2022-12-27T19:59:38.457Z,99.12
2022-12-27T20:02:05.059Z,98.74
2022-12-27T20:04:31.660Z,98.19
2022-12-27T20:06:58.174Z,98.55
2022-12-27T20:09:24.587Z,98.21
2022-12-27T20:11:51.083Z,98.65
2022-12-27T20:14:17.950Z,98.20
2022-12-27T20:16:46.274Z,98.70
2022-12-27T20:19:15.707Z,98.92
2022-12-27T20:21:42.133Z,98.24
2022-12-27T20:24:12.530Z,97.59
2022-12-27T20:26:39.169Z,98.62
2022-12-27T20:29:05.639Z,98.35
2022-12-27T20:31:32.279Z,98.25
2022-12-27T20:33:58.727Z,98.67
2022-12-27T20:36:25.172Z,97.99
2022-12-27T20:38:51.800Z,98.91
2022-12-27T20:41:19.873Z,99.18
2022-12-27T20:43:46.399Z,98.53
2022-12-27T20:46:15.384Z,98.46
2022-12-27T20:48:43.548Z,98.87
2022-12-27T20:51:12.196Z,98.89
2022-12-27T20:53:38.828Z,99.04
2022-12-27T20:56:06.902Z,98.18
2022-12-27T20:58:33.431Z,99.01
2022-12-27T21:01:11.370Z,98.90
2022-12-27T21:03:38.671Z,98.39
2022-12-27T21:06:09.470Z,98.14
2022-12-27T21:08:44.613Z,98.66
2022-12-27T21:11:15.550Z,98.76
2022-12-27T21:13:43.471Z,99.10
2022-12-27T21:16:15.716Z,98.40
2022-12-27T21:18:42.215Z,98.59
2022-12-27T21:21:14.224Z,98.75
2022-12-27T21:23:40.938Z,99.34
2022-12-27T21:26:14.203Z,98.84
2022-12-27T21:28:44.061Z,99.58
2022-12-27T21:31:11.658Z,100.00
2022-12-27T21:33:38.251Z,100.00
2022-12-27T21:36:22.321Z,99.87
2022-12-27T21:38:49.099Z,99.99
2022-12-27T21:41:19.841Z,100.00
2022-12-27T21:43:47.715Z,100.00
2022-12-27T21:46:20.857Z,100.00
2022-12-27T21:48:54.246Z,100.00
2022-12-27T21:51:20.671Z,100.00
2022-12-27T21:53:47.339Z,99.71
2022-12-27T21:56:15.444Z,100.00
2022-12-27T21:58:43.111Z,100.00
2022-12-27T22:01:12.551Z,99.92
2022-12-27T22:03:43.105Z,100.00
2022-12-27T22:06:27.358Z,100.00
2022-12-27T22:08:56.309Z,100.00
2022-12-27T22:11:23.435Z,100.00
2022-12-27T22:13:50.382Z,100.00
2022-12-27T22:16:19.778Z,100.00
2022-12-27T22:18:47.041Z,100.00
2022-12-27T22:21:19.754Z,100.00
2022-12-27T22:23:47.905Z,100.00
2022-12-27T22:26:21.378Z,100.00
2022-12-27T22:28:48.463Z,100.00
2022-12-27T22:31:17.865Z,100.00
2022-12-27T22:33:46.356Z,100.00
2022-12-27T22:36:21.244Z,100.00
2022-12-27T22:38:49.802Z,100.00
2022-12-27T22:41:20.727Z,100.00
2022-12-27T22:43:54.631Z,100.00
2022-12-27T22:46:21.465Z,100.00
2022-12-27T22:48:57.603Z,100.00
2022-12-27T22:51:26.381Z,100.00
2022-12-27T22:53:54.016Z,100.00
2022-12-27T22:56:21.800Z,100.00
2022-12-27T22:58:51.419Z,100.00
2022-12-27T23:01:29.899Z,100.00
2022-12-27T23:04:00.395Z,100.00
2022-12-27T23:06:27.857Z,100.00
2022-12-27T23:08:54.487Z,100.00
2022-12-27T23:11:32.543Z,100.00
2022-12-27T23:14:01.611Z,100.00
2022-12-27T23:16:34.617Z,100.00
2022-12-27T23:19:01.046Z,100.00
2022-12-27T23:21:27.501Z,100.00
2022-12-27T23:23:53.880Z,100.00
2022-12-27T23:26:22.344Z,100.00
2022-12-27T23:28:50.794Z,100.00
2022-12-27T23:31:18.813Z,100.00
2022-12-27T23:33:45.335Z,100.00
2022-12-27T23:36:13.671Z,100.00
2022-12-27T23:38:43.763Z,100.00
2022-12-27T23:41:22.668Z,100.00
2022-12-27T23:43:53.193Z,100.00
2022-12-27T23:46:25.218Z,100.00
2022-12-27T23:48:51.918Z,100.00
2022-12-27T23:51:18.543Z,100.00
2022-12-27T23:53:45.064Z,100.00
2022-12-27T23:56:23.946Z,100.00
2022-12-27T23:58:52.154Z,100.00
